Terminal Aerodrome Forecast
Issued by NWS

Home | Current Version | Previous Version | Text Only | Print | Product List | Glossary On
Versions: 1 2 3 4 5 6 7 8 9 10 11 12 13 14 15 16 17 18 19 20 21 22 23 24 25 26 27 28 29 30 31 32 33 34
000
FTAK31 PAFA 062339
TAFAFA
TAF
PAFA 062339Z 0700/0806 12006KT P6SM VCSH BKN025 BKN045 OVC150
      TEMPO 0701/0704 SCT025 BKN045
     FM070600 18004KT 6SM -SN BR SCT015 BKN025 OVC050
     FM070900 VRB04KT 2SM -SN BR BKN015 OVC025=

USA.gov is the U.S. government's official web portal to all federal, state and local government web resources and services.